Time;durP1;ratioP1;P1;durP2;ratioP2;P2;SDS_P1;SDS_P2;PMS_P1;PMS_P2;Temp;Humidity;BMP_temperature;BMP_pressure;BME280_temperature;BME280_humidity;BME280_pressure;Samples;Min_cycle;Max_cycle;Signal;HPM_P1;HPM_P2
2022/02/07 00:06:06;;;;;;;18.20;10.30;;;;;;;;;;5011923;28;20069;-53
2022/02/07 00:08:34;;;;;;;24.38;11.93;;;;;;;;;;5011964;28;20026;-53
2022/02/07 00:11:00;;;;;;;16.27;10.52;;;;;;;;;;5011767;28;20026;-50
2022/02/07 00:13:26;;;;;;;21.00;11.75;;;;;;;;;;5011748;28;20036;-50
2022/02/07 00:15:52;;;;;;;17.60;10.50;;;;;;;;;;5011658;28;20025;-51
2022/02/07 00:18:19;;;;;;;18.63;11.27;;;;;;;;;;5011678;28;20142;-50
2022/02/07 00:20:45;;;;;;;21.15;10.80;;;;;;;;;;5011622;28;20034;-53
2022/02/07 00:23:11;;;;;;;16.73;10.10;;;;;;;;;;5011612;28;20030;-53
2022/02/07 00:25:37;;;;;;;15.63;9.82;;;;;;;;;;5011494;28;20141;-50
2022/02/07 00:28:03;;;;;;;17.30;9.82;;;;;;;;;;5011318;28;20061;-50
2022/02/07 00:30:29;;;;;;;13.75;8.63;;;;;;;;;;5016586;28;20034;-50
2022/02/07 00:32:55;;;;;;;15.65;9.10;;;;;;;;;;5053458;28;20044;-53
2022/02/07 00:35:23;;;;;;;13.15;8.00;;;;;;;;;;5053458;28;20017;-51
2022/02/07 00:37:51;;;;;;;24.23;14.15;;;;;;;;;;5053112;28;20470;-50
2022/02/07 00:42:57;;;;;;;17.45;10.05;;;;;;;;;;5053601;28;20033;-52
2022/02/07 00:48:06;;;;;;;15.05;7.95;;;;;;;;;;5053289;28;20029;-53
2022/02/07 00:50:33;;;;;;;16.60;9.30;;;;;;;;;;5053035;28;20019;-50
2022/02/07 00:52:59;;;;;;;13.70;8.77;;;;;;;;;;5053029;28;20027;-50
2022/02/07 00:55:26;;;;;;;15.02;8.52;;;;;;;;;;5052941;28;20477;-50
2022/02/07 00:57:52;;;;;;;15.98;9.10;;;;;;;;;;5052349;28;20351;-53
2022/02/07 01:00:19;;;;;;;20.23;10.48;;;;;;;;;;5052850;28;20025;-50
2022/02/07 01:02:45;;;;;;;19.38;10.80;;;;;;;;;;5052830;28;20120;-50
2022/02/07 01:05:12;;;;;;;23.10;10.95;;;;;;;;;;5052749;28;20017;-50
2022/02/07 01:07:38;;;;;;;18.25;11.07;;;;;;;;;;5051636;28;20064;-49
2022/02/07 01:10:06;;;;;;;22.38;11.23;;;;;;;;;;5052877;28;20048;-50
2022/02/07 01:15:13;;;;;;;20.40;11.88;;;;;;;;;;5052758;28;20116;-52
2022/02/07 01:23:27;;;;;;;24.83;13.93;;;;;;;;;;5052688;28;20033;-51
2022/02/07 01:55:35;;;;;;;19.02;10.73;;;;;;;;;;5052658;28;20033;-50
2022/02/07 01:58:02;;;;;;;17.95;10.75;;;;;;;;;;5052572;28;20529;-50
2022/02/07 02:00:30;;;;;;;14.73;9.27;;;;;;;;;;5052396;28;20116;-50
2022/02/07 02:02:56;;;;;;;15.07;9.55;;;;;;;;;;5052306;28;20025;-50
2022/02/07 02:05:23;;;;;;;15.15;8.82;;;;;;;;;;5052204;28;20079;-50
2022/02/07 02:07:50;;;;;;;15.20;9.48;;;;;;;;;;5052478;28;20021;-51
2022/02/07 02:10:16;;;;;;;14.85;8.45;;;;;;;;;;5055396;28;20017;-50
2022/02/07 02:12:59;;;;;;;14.63;8.95;;;;;;;;;;5055833;28;20102;-50
2022/02/07 02:45:34;;;;;;;12.20;7.18;;;;;;;;;;5033481;28;20068;-50
2022/02/07 02:48:04;;;;;;;11.50;6.75;;;;;;;;;;5033173;28;20493;-50
2022/02/07 02:50:35;;;;;;;12.75;7.68;;;;;;;;;;5033049;28;20091;-50
2022/02/07 02:53:08;;;;;;;12.15;7.05;;;;;;;;;;5033175;28;20103;-51
2022/02/07 02:55:36;;;;;;;13.10;7.65;;;;;;;;;;5035608;28;20072;-51
2022/02/07 02:58:03;;;;;;;12.35;6.85;;;;;;;;;;5054950;28;20079;-51
2022/02/07 03:00:31;;;;;;;16.42;7.53;;;;;;;;;;5054743;28;20025;-49
2022/02/07 03:02:58;;;;;;;12.18;6.40;;;;;;;;;;5054973;28;20033;-52
2022/02/07 03:05:24;;;;;;;10.93;6.25;;;;;;;;;;5054764;28;20021;-53
2022/02/07 03:07:50;;;;;;;11.63;6.47;;;;;;;;;;5054857;28;20024;-53
2022/02/07 03:10:30;;;;;;;12.00;7.00;;;;;;;;;;5054595;28;20025;-53
2022/02/07 03:18:27;;;;;;;11.70;6.85;;;;;;;;;;5054856;28;20098;-51
2022/02/07 03:20:54;;;;;;;13.73;7.15;;;;;;;;;;5054310;28;20036;-50
2022/02/07 03:23:20;;;;;;;13.02;7.15;;;;;;;;;;5054695;28;20449;-50
2022/02/07 03:25:46;;;;;;;10.57;5.72;;;;;;;;;;5054452;28;20028;-50
2022/02/07 03:28:12;;;;;;;13.80;6.30;;;;;;;;;;5054248;28;20094;-50
2022/02/07 03:30:39;;;;;;;11.80;6.72;;;;;;;;;;5054684;28;20441;-50
2022/02/07 03:33:05;;;;;;;12.40;6.78;;;;;;;;;;5054291;28;20092;-50
2022/02/07 03:35:32;;;;;;;11.82;6.88;;;;;;;;;;5054228;28;20079;-51
2022/02/07 03:37:58;;;;;;;11.00;6.85;;;;;;;;;;5054200;28;20029;-50
2022/02/07 03:40:24;;;;;;;12.50;6.93;;;;;;;;;;5054053;28;20032;-51
2022/02/07 03:42:50;;;;;;;13.70;6.85;;;;;;;;;;5054148;28;20094;-50
2022/02/07 03:45:16;;;;;;;10.43;5.90;;;;;;;;;;5054107;28;20025;-51
2022/02/07 03:47:43;;;;;;;10.32;6.05;;;;;;;;;;5053967;28;20478;-50
2022/02/07 03:50:10;;;;;;;12.52;6.45;;;;;;;;;;5053833;28;20389;-50
2022/02/07 03:52:36;;;;;;;7.22;5.13;;;;;;;;;;5053871;28;20017;-50
2022/02/07 03:55:02;;;;;;;12.82;6.28;;;;;;;;;;5052908;28;20405;-50
2022/02/07 03:57:28;;;;;;;10.60;6.32;;;;;;;;;;5053971;28;20505;-50
2022/02/07 03:59:54;;;;;;;14.82;6.53;;;;;;;;;;5054021;28;20109;-50
2022/02/07 04:02:21;;;;;;;9.90;5.32;;;;;;;;;;5053643;28;20110;-50
2022/02/07 04:04:54;;;;;;;13.35;5.80;;;;;;;;;;5053617;28;20483;-50
2022/02/07 04:07:20;;;;;;;7.75;4.90;;;;;;;;;;5053859;28;20417;-52
2022/02/07 04:09:53;;;;;;;11.77;5.80;;;;;;;;;;5053813;28;20095;-50
2022/02/07 04:12:23;;;;;;;13.23;6.63;;;;;;;;;;5053554;28;20465;-50
2022/02/07 04:14:49;;;;;;;8.80;5.00;;;;;;;;;;5053837;28;20029;-50
2022/02/07 04:17:21;;;;;;;11.82;6.72;;;;;;;;;;5053584;28;20025;-53
2022/02/07 04:19:47;;;;;;;;;;;;;;;;;;5053802;28;20747;-50
2022/02/07 04:22:13;;;;;;;12.00;5.47;;;;;;;;;;5053383;28;19912;-50
2022/02/07 04:24:39;;;;;;;11.60;7.25;;;;;;;;;;5053367;28;20027;-50
2022/02/07 04:27:05;;;;;;;9.18;5.97;;;;;;;;;;5053328;28;20029;-50
2022/02/07 04:29:31;;;;;;;14.93;7.78;;;;;;;;;;5053402;28;20569;-50
2022/02/07 04:31:57;;;;;;;7.70;4.78;;;;;;;;;;5052452;28;20043;-50
2022/02/07 04:34:23;;;;;;;6.68;3.80;;;;;;;;;;5053696;28;20445;-50
2022/02/07 04:36:55;;;;;;;7.47;4.20;;;;;;;;;;5053406;28;20033;-50
2022/02/07 04:39:21;;;;;;;4.88;3.50;;;;;;;;;;5053117;28;20062;-50
2022/02/07 04:41:48;;;;;;;6.90;3.92;;;;;;;;;;5053048;28;20040;-51
2022/02/07 04:44:21;;;;;;;7.10;3.85;;;;;;;;;;5053040;28;20112;-50
2022/02/07 04:47:11;;;;;;;13.10;4.10;;;;;;;;;;5053063;28;20033;-50
2022/02/07 04:52:22;;;;;;;12.65;6.38;;;;;;;;;;5053044;28;20035;-50
2022/02/07 04:55:09;;;;;;;11.90;6.35;;;;;;;;;;5053039;28;20072;-50
2022/02/07 05:02:44;;;;;;;11.55;6.57;;;;;;;;;;5053024;28;20041;-56
2022/02/07 05:16:19;;;;;;;9.68;6.78;;;;;;;;;;5052752;28;20025;-52
2022/02/07 05:18:45;;;;;;;11.18;5.63;;;;;;;;;;5052973;28;20033;-52
2022/02/07 05:21:12;;;;;;;13.32;6.93;;;;;;;;;;5052921;28;20028;-53
2022/02/07 05:23:38;;;;;;;11.95;5.28;;;;;;;;;;5052879;28;20021;-53
2022/02/07 05:26:04;;;;;;;7.15;4.20;;;;;;;;;;5052662;28;20029;-52
2022/02/07 05:28:32;;;;;;;14.52;5.53;;;;;;;;;;5052519;28;20068;-52
2022/02/07 05:30:58;;;;;;;8.30;5.35;;;;;;;;;;5052532;28;20497;-52
2022/02/07 05:33:24;;;;;;;16.63;8.98;;;;;;;;;;5052527;28;20079;-52
2022/02/07 05:35:50;;;;;;;14.77;6.45;;;;;;;;;;5052651;28;20028;-52
2022/02/07 05:38:17;;;;;;;15.25;7.90;;;;;;;;;;5052654;28;20024;-52
2022/02/07 05:40:56;;;;;;;13.90;6.78;;;;;;;;;;5052505;28;20336;-51
2022/02/07 05:43:23;;;;;;;18.70;7.63;;;;;;;;;;5054352;28;20025;-51
2022/02/07 05:45:49;;;;;;;17.02;7.85;;;;;;;;;;5056243;28;20025;-54
2022/02/07 05:48:15;;;;;;;17.73;8.65;;;;;;;;;;5056349;28;20103;-52
2022/02/07 05:50:41;;;;;;;13.48;7.22;;;;;;;;;;5056124;28;20029;-52
2022/02/07 05:53:07;;;;;;;12.23;6.13;;;;;;;;;;5056039;28;20029;-51
2022/02/07 05:55:33;;;;;;;33.45;15.23;;;;;;;;;;5055987;28;20074;-52
2022/02/07 05:57:59;;;;;;;41.42;17.20;;;;;;;;;;5056287;28;20393;-51
2022/02/07 06:00:32;;;;;;;27.52;11.82;;;;;;;;;;5055083;28;20068;-53
2022/02/07 06:02:58;;;;;;;18.90;7.20;;;;;;;;;;5055879;28;20029;-52
2022/02/07 06:05:24;;;;;;;35.05;15.88;;;;;;;;;;5056202;28;20592;-53
2022/02/07 06:07:50;;;;;;;18.50;8.88;;;;;;;;;;5056205;28;20492;-52
2022/02/07 06:10:16;;;;;;;65.00;25.73;;;;;;;;;;5056112;28;20025;-52
2022/02/07 06:12:45;;;;;;;38.28;15.13;;;;;;;;;;5055822;28;20028;-52
2022/02/07 06:15:11;;;;;;;14.63;6.63;;;;;;;;;;5054758;28;20039;-52
2022/02/07 06:17:38;;;;;;;13.52;5.30;;;;;;;;;;5055700;28;20028;-52
2022/02/07 06:20:04;;;;;;;36.78;15.82;;;;;;;;;;5055656;28;20064;-52
2022/02/07 06:22:30;;;;;;;34.58;14.95;;;;;;;;;;5055872;28;20033;-53
2022/02/07 06:24:57;;;;;;;29.40;12.68;;;;;;;;;;5054518;28;20037;-52
2022/02/07 06:27:23;;;;;;;19.10;9.90;;;;;;;;;;5055386;28;20515;-52
2022/02/07 06:29:50;;;;;;;21.25;9.90;;;;;;;;;;5055312;28;20041;-52
2022/02/07 06:32:16;;;;;;;7.35;4.50;;;;;;;;;;5055415;28;20032;-50
2022/02/07 06:34:42;;;;;;;7.78;4.45;;;;;;;;;;5055436;28;20031;-54
2022/02/07 06:37:08;;;;;;;7.80;4.65;;;;;;;;;;5055314;28;20088;-51
2022/02/07 06:39:35;;;;;;;13.50;6.40;;;;;;;;;;5055252;28;20129;-51
2022/02/07 06:42:01;;;;;;;10.45;6.22;;;;;;;;;;5055209;28;20443;-52
2022/02/07 06:44:27;;;;;;;13.45;6.90;;;;;;;;;;5055274;28;20029;-51
2022/02/07 06:46:56;;;;;;;13.88;8.25;;;;;;;;;;5055148;28;20381;-51
2022/02/07 06:49:24;;;;;;;16.85;8.00;;;;;;;;;;5054994;28;20468;-51
2022/02/07 06:51:50;;;;;;;16.65;9.60;;;;;;;;;;5055167;28;20071;-52
2022/02/07 06:54:16;;;;;;;22.67;10.02;;;;;;;;;;5054094;28;20028;-52
2022/02/07 06:56:44;;;;;;;17.73;7.82;;;;;;;;;;5054743;28;20017;-53
2022/02/07 06:59:15;;;;;;;22.00;10.70;;;;;;;;;;5055036;28;20029;-52
2022/02/07 07:01:41;;;;;;;22.27;11.32;;;;;;;;;;5054919;28;20025;-54
2022/02/07 07:04:07;;;;;;;20.95;10.95;;;;;;;;;;5054925;28;20037;-52
2022/02/07 07:06:34;;;;;;;28.77;13.32;;;;;;;;;;5054937;28;20092;-52
2022/02/07 07:09:00;;;;;;;20.30;8.50;;;;;;;;;;5054661;28;20017;-52
2022/02/07 07:11:28;;;;;;;13.23;6.95;;;;;;;;;;5054732;28;20025;-51
2022/02/07 07:13:59;;;;;;;11.65;7.13;;;;;;;;;;5054398;28;20465;-51
2022/02/07 07:18:55;;;;;;;16.70;9.65;;;;;;;;;;5054477;28;19912;-51
2022/02/07 07:21:23;;;;;;;21.88;11.05;;;;;;;;;;5053146;28;20036;-51
2022/02/07 07:23:49;;;;;;;24.17;12.10;;;;;;;;;;5054326;28;20462;-52
2022/02/07 07:26:15;;;;;;;23.13;11.05;;;;;;;;;;5054321;28;20489;-52
2022/02/07 07:28:42;;;;;;;17.88;10.20;;;;;;;;;;5054013;28;20041;-53
2022/02/07 07:31:11;;;;;;;17.38;9.73;;;;;;;;;;5054393;28;20096;-51
2022/02/07 07:33:39;;;;;;;20.23;11.25;;;;;;;;;;5054227;28;20029;-51
2022/02/07 07:36:07;;;;;;;20.02;9.65;;;;;;;;;;5054323;28;20017;-52
2022/02/07 07:38:33;;;;;;;22.48;12.93;;;;;;;;;;5054196;28;20024;-52
2022/02/07 07:40:59;;;;;;;35.90;19.33;;;;;;;;;;5053133;28;20378;-52
2022/02/07 07:43:25;;;;;;;60.10;32.78;;;;;;;;;;5052921;28;20075;-51
2022/02/07 07:46:04;;;;;;;30.95;16.52;;;;;;;;;;5054166;28;20021;-52
2022/02/07 07:48:34;;;;;;;34.17;17.88;;;;;;;;;;5054131;28;20029;-52
2022/02/07 07:51:18;;;;;;;44.67;25.48;;;;;;;;;;5053827;28;20024;-53
2022/02/07 07:54:00;;;;;;;57.47;28.35;;;;;;;;;;5052912;28;20424;-52
2022/02/07 08:01:58;;;;;;;41.00;19.65;;;;;;;;;;5053723;28;20122;-52
2022/02/07 08:04:31;;;;;;;32.10;18.38;;;;;;;;;;5053688;28;20482;-50
2022/02/07 08:12:03;;;;;;;35.35;17.98;;;;;;;;;;5053581;28;20033;-53
2022/02/07 08:14:30;;;;;;;37.05;17.45;;;;;;;;;;5053484;28;20025;-54
2022/02/07 08:16:56;;;;;;;48.40;25.88;;;;;;;;;;5053415;28;20021;-54
2022/02/07 08:19:25;;;;;;;39.95;20.42;;;;;;;;;;5053465;28;20025;-54
2022/02/07 08:21:54;;;;;;;55.63;27.65;;;;;;;;;;5053074;28;20033;-54
2022/02/07 08:24:21;;;;;;;47.38;24.60;;;;;;;;;;5053193;28;20104;-54
2022/02/07 08:26:47;;;;;;;50.75;24.58;;;;;;;;;;5053245;28;20025;-54
2022/02/07 08:29:14;;;;;;;45.58;25.52;;;;;;;;;;5053023;28;20045;-50
2022/02/07 08:31:40;;;;;;;38.13;18.30;;;;;;;;;;5053035;28;20033;-53
2022/02/07 08:34:06;;;;;;;58.67;31.30;;;;;;;;;;5053361;28;20354;-54
2022/02/07 08:36:32;;;;;;;59.83;32.85;;;;;;;;;;5053054;28;20027;-52
2022/02/07 08:38:58;;;;;;;65.03;34.60;;;;;;;;;;5053216;28;20074;-53
2022/02/07 08:41:28;;;;;;;39.28;22.13;;;;;;;;;;5053024;28;20029;-51
2022/02/07 08:43:54;;;;;;;40.15;20.75;;;;;;;;;;5053097;28;20495;-51
2022/02/07 08:46:23;;;;;;;21.73;13.18;;;;;;;;;;5052842;28;20471;-53
2022/02/07 08:48:50;;;;;;;49.70;29.38;;;;;;;;;;5053113;28;20039;-50
2022/02/07 08:51:17;;;;;;;28.40;16.02;;;;;;;;;;5052973;28;20377;-51
2022/02/07 08:53:45;;;;;;;14.65;7.10;;;;;;;;;;5053033;28;20382;-50
2022/02/07 08:56:12;;;;;;;16.50;9.55;;;;;;;;;;5052918;28;20021;-52
2022/02/07 08:58:42;;;;;;;14.02;7.63;;;;;;;;;;5052996;28;20033;-52
2022/02/07 09:06:26;;;;;;;17.20;7.63;;;;;;;;;;5052631;28;20087;-52
2022/02/07 09:09:06;;;;;;;24.80;13.32;;;;;;;;;;5052614;28;20503;-49
2022/02/07 09:11:32;;;;;;;20.00;10.77;;;;;;;;;;5052482;28;20032;-50
2022/02/07 09:14:01;;;;;;;16.85;9.18;;;;;;;;;;5052494;28;20485;-52
2022/02/07 09:16:30;;;;;;;15.50;8.02;;;;;;;;;;5052818;28;20397;-49
2022/02/07 09:18:59;;;;;;;15.23;7.50;;;;;;;;;;5054134;28;20465;-50
2022/02/07 09:21:30;;;;;;;17.17;8.50;;;;;;;;;;5056486;28;20481;-49
2022/02/07 09:23:57;;;;;;;10.00;5.00;;;;;;;;;;5056614;28;20455;-52
2022/02/07 09:26:24;;;;;;;10.70;6.10;;;;;;;;;;5056457;28;20096;-50
2022/02/07 09:28:50;;;;;;;15.75;6.50;;;;;;;;;;5056412;28;20052;-52
2022/02/07 09:31:16;;;;;;;11.70;5.53;;;;;;;;;;5056524;28;20032;-49
2022/02/07 09:33:45;;;;;;;9.98;4.20;;;;;;;;;;5056438;28;20099;-53
2022/02/07 09:36:15;;;;;;;6.35;3.47;;;;;;;;;;5056417;28;20017;-52
2022/02/07 09:38:42;;;;;;;8.60;3.47;;;;;;;;;;5056468;28;20464;-53
2022/02/07 09:41:08;;;;;;;5.35;3.60;;;;;;;;;;5056154;28;20112;-53
2022/02/07 09:43:41;;;;;;;7.25;3.42;;;;;;;;;;5056451;28;20435;-52
2022/02/07 09:46:11;;;;;;;5.30;3.10;;;;;;;;;;5056279;28;20108;-50
2022/02/07 09:48:39;;;;;;;7.35;2.97;;;;;;;;;;5056335;28;20063;-53
2022/02/07 09:51:06;;;;;;;7.53;3.53;;;;;;;;;;5056179;28;20017;-50
2022/02/07 09:53:33;;;;;;;31.48;12.90;;;;;;;;;;5055934;28;20074;-50
2022/02/07 09:55:59;;;;;;;14.77;9.85;;;;;;;;;;5056156;28;20100;-49
2022/02/07 09:58:26;;;;;;;41.33;24.13;;;;;;;;;;5056189;28;20029;-50
2022/02/07 10:00:57;;;;;;;21.55;12.85;;;;;;;;;;5055958;28;20114;-50
2022/02/07 10:03:31;;;;;;;12.23;6.38;;;;;;;;;;5055810;28;20048;-50
2022/02/07 10:06:05;;;;;;;17.42;9.40;;;;;;;;;;5056171;28;20516;-50
2022/02/07 10:08:50;;;;;;;15.70;9.68;;;;;;;;;;5055801;28;20033;-51
2022/02/07 10:11:39;;;;;;;13.27;7.45;;;;;;;;;;5055055;28;20477;-51
2022/02/07 10:14:15;;;;;;;14.50;7.28;;;;;;;;;;5053789;28;20017;-50
2022/02/07 10:38:45;;;;;;;17.83;10.40;;;;;;;;;;5033370;28;20041;-51
2022/02/07 10:46:14;;;;;;;19.95;10.68;;;;;;;;;;5033068;28;20025;-51
2022/02/07 10:48:48;;;;;;;13.55;6.82;;;;;;;;;;5033152;28;20048;-49
2022/02/07 10:51:14;;;;;;;8.30;5.55;;;;;;;;;;5033051;28;20100;-49
2022/02/07 10:53:45;;;;;;;7.43;4.10;;;;;;;;;;5033155;28;20052;-50
2022/02/07 10:56:11;;;;;;;10.77;6.63;;;;;;;;;;5032927;28;20100;-49
2022/02/07 10:58:38;;;;;;;16.95;8.80;;;;;;;;;;5032804;28;20560;-50
2022/02/07 11:01:13;;;;;;;16.60;8.07;;;;;;;;;;5032863;28;20041;-48
2022/02/07 11:03:52;;;;;;;18.13;10.43;;;;;;;;;;5032803;28;20099;-49
2022/02/07 11:06:26;;;;;;;17.77;9.98;;;;;;;;;;5036417;28;20044;-49
2022/02/07 11:21:44;;;;;;;25.50;10.73;;;;;;;;;;5054490;28;20103;-50
2022/02/07 11:24:20;;;;;;;22.90;9.13;;;;;;;;;;5054275;28;20477;-49
2022/02/07 11:26:50;;;;;;;18.77;9.48;;;;;;;;;;5054579;28;20029;-49
2022/02/07 11:29:38;;;;;;;18.92;6.75;;;;;;;;;;5054075;28;20040;-48
2022/02/07 11:32:06;;;;;;;11.57;6.35;;;;;;;;;;5054413;28;20036;-49
2022/02/07 11:34:42;;;;;;;9.85;5.22;;;;;;;;;;5054219;28;20027;-49
2022/02/07 11:37:21;;;;;;;19.23;8.45;;;;;;;;;;5054300;28;20079;-50
2022/02/07 11:39:50;;;;;;;19.38;10.35;;;;;;;;;;5054262;28;20102;-50
2022/02/07 11:42:17;;;;;;;56.72;27.92;;;;;;;;;;5053661;28;20493;-50
2022/02/07 11:44:43;;;;;;;65.10;35.05;;;;;;;;;;5054041;28;20367;-51
2022/02/07 11:47:16;;;;;;;50.72;25.70;;;;;;;;;;5053914;28;20037;-49
2022/02/07 11:49:43;;;;;;;40.80;19.90;;;;;;;;;;5054088;28;20025;-49
2022/02/07 11:52:30;;;;;;;17.17;6.78;;;;;;;;;;5054089;28;20059;-49
2022/02/07 11:54:59;;;;;;;11.68;5.75;;;;;;;;;;5054163;28;20039;-50
2022/02/07 11:57:37;;;;;;;21.48;10.45;;;;;;;;;;5053601;28;20024;-51
2022/02/07 12:00:26;;;;;;;8.25;4.50;;;;;;;;;;5053934;28;20036;-48
2022/02/07 12:02:53;;;;;;;17.08;5.43;;;;;;;;;;5053749;28;20116;-48
2022/02/07 12:05:22;;;;;;;13.20;4.07;;;;;;;;;;5053749;28;20096;-49
2022/02/07 12:08:05;;;;;;;8.55;3.03;;;;;;;;;;5053585;28;20493;-49
2022/02/07 12:13:04;;;;;;;10.07;4.05;;;;;;;;;;5053532;28;20421;-49
2022/02/07 12:17:58;;;;;;;11.10;4.80;;;;;;;;;;5053551;28;20083;-49
2022/02/07 12:20:26;;;;;;;8.63;2.45;;;;;;;;;;5053570;28;20060;-49
2022/02/07 12:22:54;;;;;;;6.25;3.13;;;;;;;;;;5053372;28;20108;-52
2022/02/07 12:25:38;;;;;;;5.55;2.83;;;;;;;;;;5053411;28;20021;-50
2022/02/07 12:28:13;;;;;;;6.53;2.50;;;;;;;;;;5053433;28;20551;-51
2022/02/07 12:30:59;;;;;;;7.55;3.63;;;;;;;;;;5053429;28;20037;-49
2022/02/07 12:33:25;;;;;;;6.70;3.38;;;;;;;;;;5053281;28;20396;-49
2022/02/07 12:35:53;;;;;;;6.80;3.33;;;;;;;;;;5053307;28;20279;-50
2022/02/07 12:38:19;;;;;;;6.82;3.65;;;;;;;;;;5053344;28;20021;-47
2022/02/07 12:40:46;;;;;;;4.93;2.75;;;;;;;;;;5053471;28;20374;-48
2022/02/07 12:43:13;;;;;;;5.68;3.40;;;;;;;;;;5053248;28;20048;-49
2022/02/07 12:45:40;;;;;;;8.10;4.18;;;;;;;;;;5053323;28;20029;-48
2022/02/07 12:48:13;;;;;;;10.25;4.78;;;;;;;;;;5053014;28;20059;-48
2022/02/07 12:50:40;;;;;;;15.20;6.72;;;;;;;;;;5053178;28;20100;-49
2022/02/07 12:53:08;;;;;;;14.63;6.78;;;;;;;;;;5052386;28;20025;-51
2022/02/07 12:55:35;;;;;;;13.35;6.63;;;;;;;;;;5053149;28;20021;-49
2022/02/07 12:58:02;;;;;;;13.25;5.97;;;;;;;;;;5053345;28;20104;-57
2022/02/07 13:00:28;;;;;;;15.90;6.65;;;;;;;;;;5053202;28;20033;-57
2022/02/07 13:02:54;;;;;;;16.08;6.75;;;;;;;;;;5052882;28;20033;-52
2022/02/07 13:05:21;;;;;;;9.02;4.10;;;;;;;;;;5053151;28;20025;-56
2022/02/07 13:07:51;;;;;;;11.93;4.38;;;;;;;;;;5053036;28;20056;-54
2022/02/07 13:10:25;;;;;;;13.35;6.20;;;;;;;;;;5051850;28;20441;-49
2022/02/07 13:15:29;;;;;;;16.17;6.28;;;;;;;;;;5052781;28;20021;-54
2022/02/07 13:18:00;;;;;;;9.93;4.75;;;;;;;;;;5053043;28;20024;-53
2022/02/07 13:20:27;;;;;;;14.20;4.25;;;;;;;;;;5052945;28;20025;-49
2022/02/07 13:23:02;;;;;;;6.45;3.65;;;;;;;;;;5052776;28;20037;-50
2022/02/07 13:25:42;;;;;;;7.70;2.75;;;;;;;;;;5053228;28;20063;-49
2022/02/07 13:28:22;;;;;;;5.03;3.03;;;;;;;;;;5052583;28;20451;-53
2022/02/07 13:30:52;;;;;;;7.43;3.33;;;;;;;;;;5052100;28;20067;-55
2022/02/07 13:33:19;;;;;;;11.02;2.55;;;;;;;;;;5048211;28;20057;-48
2022/02/07 13:35:48;;;;;;;34.90;14.32;;;;;;;;;;5051267;28;20163;-51
2022/02/07 13:38:15;;;;;;;18.90;7.55;;;;;;;;;;5051291;28;20488;-51
2022/02/07 13:40:48;;;;;;;9.82;3.45;;;;;;;;;;5051065;28;20021;-55
2022/02/07 13:43:34;;;;;;;12.25;4.70;;;;;;;;;;5048906;28;20484;-53
2022/02/07 13:46:02;;;;;;;10.98;5.38;;;;;;;;;;5049707;28;20090;-53
2022/02/07 13:48:29;;;;;;;11.05;4.40;;;;;;;;;;5051014;28;20021;-52
2022/02/07 13:50:58;;;;;;;9.65;4.93;;;;;;;;;;5051659;28;20021;-54
2022/02/07 13:53:25;;;;;;;9.88;4.18;;;;;;;;;;5052424;28;20055;-53
2022/02/07 13:55:52;;;;;;;12.05;5.72;;;;;;;;;;5051034;28;20048;-51
2022/02/07 13:58:20;;;;;;;16.17;7.72;;;;;;;;;;5050844;28;20146;-47
2022/02/07 14:00:49;;;;;;;7.10;3.67;;;;;;;;;;5051764;28;20065;-48
2022/02/07 14:03:31;;;;;;;15.25;6.28;;;;;;;;;;5052509;28;20039;-47
2022/02/07 14:06:00;;;;;;;8.55;3.72;;;;;;;;;;5055866;28;20025;-54
2022/02/07 14:08:36;;;;;;;18.42;7.43;;;;;;;;;;5056169;28;20469;-50
2022/02/07 14:11:03;;;;;;;23.35;10.48;;;;;;;;;;5055846;28;20087;-53
2022/02/07 14:13:29;;;;;;;22.33;6.28;;;;;;;;;;5055863;28;20482;-49
2022/02/07 14:15:58;;;;;;;7.45;3.65;;;;;;;;;;5055788;28;20104;-50
2022/02/07 14:18:26;;;;;;;15.25;4.72;;;;;;;;;;5055704;28;20026;-49
2022/02/07 14:20:52;;;;;;;10.25;5.38;;;;;;;;;;5055736;28;20025;-49
2022/02/07 14:23:19;;;;;;;15.57;7.63;;;;;;;;;;5055747;28;20433;-48
2022/02/07 14:25:50;;;;;;;14.57;6.68;;;;;;;;;;5054401;28;20025;-49
2022/02/07 14:28:17;;;;;;;21.20;9.55;;;;;;;;;;5053929;28;20040;-49
2022/02/07 14:30:43;;;;;;;17.25;7.28;;;;;;;;;;5054069;28;20469;-55
2022/02/07 14:33:09;;;;;;;12.90;5.20;;;;;;;;;;5054097;28;20025;-47
2022/02/07 14:35:36;;;;;;;16.30;7.47;;;;;;;;;;5054101;28;20048;-48
2022/02/07 14:38:03;;;;;;;11.27;4.88;;;;;;;;;;5054292;28;20381;-50
2022/02/07 14:40:33;;;;;;;14.65;5.80;;;;;;;;;;5053986;28;20482;-52
2022/02/07 14:43:01;;;;;;;6.97;4.32;;;;;;;;;;5053986;28;20436;-46
2022/02/07 14:45:35;;;;;;;8.25;4.30;;;;;;;;;;5053900;28;20100;-45
2022/02/07 14:48:03;;;;;;;9.23;4.15;;;;;;;;;;5051379;28;20033;-53
2022/02/07 14:50:31;;;;;;;8.20;3.72;;;;;;;;;;5053913;28;20056;-49
2022/02/07 14:52:58;;;;;;;11.05;4.07;;;;;;;;;;5053682;28;20071;-50
2022/02/07 14:55:25;;;;;;;12.27;4.75;;;;;;;;;;5053764;28;20017;-52
2022/02/07 14:57:51;;;;;;;21.65;10.20;;;;;;;;;;5053544;28;20036;-48
2022/02/07 15:00:18;;;;;;;10.77;3.80;;;;;;;;;;5053401;28;20029;-51
2022/02/07 15:02:45;;;;;;;17.10;9.07;;;;;;;;;;5053603;28;20021;-55
2022/02/07 15:05:12;;;;;;;20.30;9.25;;;;;;;;;;5053477;28;20175;-47
2022/02/07 15:07:38;;;;;;;22.63;10.55;;;;;;;;;;5053400;28;20021;-47
2022/02/07 15:10:05;;;;;;;14.75;7.57;;;;;;;;;;5053549;28;20099;-53
2022/02/07 15:12:34;;;;;;;11.32;6.35;;;;;;;;;;5051736;28;20040;-45
2022/02/07 15:15:01;;;;;;;19.15;7.68;;;;;;;;;;5052586;28;20017;-49
2022/02/07 15:17:31;;;;;;;34.55;19.08;;;;;;;;;;5052216;28;20065;-55
2022/02/07 15:19:58;;;;;;;32.45;16.90;;;;;;;;;;5053435;28;20049;-51
2022/02/07 15:22:24;;;;;;;28.10;12.90;;;;;;;;;;5053631;28;20385;-50
2022/02/07 15:24:55;;;;;;;21.27;11.75;;;;;;;;;;5054506;28;20037;-51
2022/02/07 15:27:29;;;;;;;11.33;6.13;;;;;;;;;;5054391;28;20454;-51
2022/02/07 15:29:56;;;;;;;24.60;7.40;;;;;;;;;;5054096;28;20135;-50
2022/02/07 15:34:49;;;;;;;35.20;17.35;;;;;;;;;;5053931;28;20029;-50
2022/02/07 15:37:15;;;;;;;19.90;9.35;;;;;;;;;;5054112;28;20359;-48
2022/02/07 15:39:44;;;;;;;25.80;8.45;;;;;;;;;;5053688;28;20021;-48
2022/02/07 15:42:10;;;;;;;13.50;7.05;;;;;;;;;;5054069;28;20142;-48
2022/02/07 15:44:36;;;;;;;25.45;13.93;;;;;;;;;;5053993;28;20033;-49
2022/02/07 15:47:03;;;;;;;24.67;11.38;;;;;;;;;;5054122;28;20531;-49
2022/02/07 15:49:29;;;;;;;43.17;24.67;;;;;;;;;;5053832;28;20445;-45
2022/02/07 15:51:55;;;;;;;17.08;7.05;;;;;;;;;;5054004;28;20021;-42
2022/02/07 15:54:21;;;;;;;33.92;17.98;;;;;;;;;;5053901;28;20025;-47
2022/02/07 15:56:47;;;;;;;20.00;10.02;;;;;;;;;;5052110;28;20535;-42
2022/02/07 15:59:13;;;;;;;30.30;15.60;;;;;;;;;;5023039;28;20422;-45
2022/02/07 16:01:42;;;;;;;28.35;11.30;;;;;;;;;;5021517;28;20037;-44
2022/02/07 16:04:08;;;;;;;13.65;5.45;;;;;;;;;;5022158;28;20048;-50
2022/02/07 16:06:36;;;;;;;19.70;7.30;;;;;;;;;;5021321;28;20039;-50
2022/02/07 16:09:02;;;;;;;16.77;6.05;;;;;;;;;;5022029;28;20112;-49
2022/02/07 16:11:31;;;;;;;23.98;6.75;;;;;;;;;;5020947;28;20028;-49
2022/02/07 16:13:58;;;;;;;21.05;8.27;;;;;;;;;;5020935;28;20063;-51
2022/02/07 16:16:29;;;;;;;20.05;5.70;;;;;;;;;;5022287;28;20022;-49
2022/02/07 16:18:57;;;;;;;25.52;8.40;;;;;;;;;;5020986;28;20472;-50
2022/02/07 16:21:26;;;;;;;20.90;8.77;;;;;;;;;;5021102;28;20021;-49
2022/02/07 16:23:52;;;;;;;18.10;7.28;;;;;;;;;;5020966;28;20029;-49
2022/02/07 16:26:18;;;;;;;19.60;7.80;;;;;;;;;;5020841;28;20059;-50
2022/02/07 16:28:44;;;;;;;20.90;8.52;;;;;;;;;;5019687;28;20053;-52
2022/02/07 16:31:11;;;;;;;26.88;8.57;;;;;;;;;;5020906;28;21038;-51
2022/02/07 16:33:38;;;;;;;19.90;6.90;;;;;;;;;;5021884;28;20073;-51
2022/02/07 16:36:04;;;;;;;26.00;9.85;;;;;;;;;;5020863;28;20032;-49
2022/02/07 16:38:31;;;;;;;25.90;10.50;;;;;;;;;;5020508;28;20040;-50
2022/02/07 16:40:57;;;;;;;24.75;10.45;;;;;;;;;;5020704;28;20505;-50
2022/02/07 16:43:27;;;;;;;25.05;9.13;;;;;;;;;;5020679;28;20393;-50
2022/02/07 16:48:20;;;;;;;23.90;8.00;;;;;;;;;;5020540;28;20033;-51
2022/02/07 16:50:46;;;;;;;16.90;7.18;;;;;;;;;;5021521;28;20108;-51
2022/02/07 16:53:12;;;;;;;27.05;7.43;;;;;;;;;;5020398;28;20091;-50
2022/02/07 16:55:39;;;;;;;22.42;8.20;;;;;;;;;;5020391;28;20024;-50
2022/02/07 16:58:07;;;;;;;21.17;7.85;;;;;;;;;;5020488;28;20033;-50
2022/02/07 17:00:34;;;;;;;23.15;7.22;;;;;;;;;;5020283;28;20076;-51
2022/02/07 17:03:00;;;;;;;15.48;6.13;;;;;;;;;;5024703;28;20044;-51
2022/02/07 17:05:26;;;;;;;26.20;8.65;;;;;;;;;;5026749;28;20025;-50
2022/02/07 17:07:54;;;;;;;22.30;7.68;;;;;;;;;;5025904;28;20125;-48
2022/02/07 17:10:27;;;;;;;26.60;9.43;;;;;;;;;;5027878;28;20171;-49
2022/02/07 17:12:53;;;;;;;25.27;9.20;;;;;;;;;;5025976;28;20032;-50
2022/02/07 17:15:19;;;;;;;25.23;9.02;;;;;;;;;;5026260;28;20128;-50
2022/02/07 17:17:47;;;;;;;23.50;8.55;;;;;;;;;;5025794;28;20507;-50
2022/02/07 17:20:14;;;;;;;27.35;8.52;;;;;;;;;;5023767;28;20057;-51
2022/02/07 17:22:41;;;;;;;23.50;8.98;;;;;;;;;;5020164;28;20230;-50
2022/02/07 17:25:07;;;;;;;22.02;8.27;;;;;;;;;;5020157;28;20061;-52
2022/02/07 17:27:36;;;;;;;25.48;10.23;;;;;;;;;;5019957;28;20116;-51
2022/02/07 17:30:02;;;;;;;25.30;11.10;;;;;;;;;;5019986;28;20049;-53